Valle Di Andalusia — IBTJ — position and weather

sailwx.info

Track history (hours):
 
Tides and Currents Weather Stations Pressure Air Temp Water Temp Dewpoint Dewpoint Depression Visibility Wind Speed Wind Dir Waves Ship Positions

Valle Di Andalusia

Last reported at 2016-Feb-11 12:12 UTC. Time now 2016-Feb-12 14:11 UTC.
Position N 44°48' E 012°56'.

Length 176 m; draft 7.5 m.

Type: Tanker. MMSI: 247046200.

Date/timePositionNaut miles runAvg speedWind from/ knotsBaromVisibWave heightAir tempDewpointWater temp
2016-Feb-11 12:12N 44°48' E 012°56'812.9
2016-Feb-11 11:33N 44°55' E 012°50'1313.1
2016-Feb-11 10:33N 45°06' E 012°41'1212.3
2016-Feb-11 09:33N 45°15' E 012°29'1110.7
2016-Feb-11 08:34N 45°21' E 012°16'6 5.8
2016-Feb-11 07:34N 45°26' E 012°14'0 0.2
2016-Feb-11 06:32N 45°26' E 012°14'0 0.0
2016-Feb-11 05:31N 45°26' E 012°14'0 0.0
2016-Feb-11 04:31N 45°26' E 012°14'0 0.0
2016-Feb-11 03:33N 45°26' E 012°14'0 0.0
2016-Feb-11 02:30N 45°26' E 012°14'0 0.0
2016-Feb-11 01:32N 45°26' E 012°14'0 0.0
2016-Feb-11 00:32N 45°26' E 012°14'0 0.0
2016-Feb-10 23:29N 45°26' E 012°14'0 0.0
2016-Feb-10 22:31N 45°26' E 012°14'0 0.0
2016-Feb-10 21:31N 45°26' E 012°14'0 0.0
2016-Feb-10 20:33N 45°26' E 012°14'0 0.0
2016-Feb-10 19:33N 45°26' E 012°14'0 0.0
2016-Feb-10 18:32N 45°26' E 012°14'0 0.0
2016-Feb-10 17:32N 45°26' E 012°14'0 0.0
2016-Feb-10 16:32N 45°26' E 012°14'0 0.0
2016-Feb-10 15:31N 45°26' E 012°14'0 0.0
2016-Feb-10 14:31N 45°26' E 012°14'0 0.0
2016-Feb-10 13:33N 45°26' E 012°14'0 0.0
2016-Feb-10 12:33N 45°26' E 012°14'0 0.0
2016-Feb-10 11:32N 45°26' E 012°14'0 0.0
2016-Feb-10 10:32N 45°26' E 012°14'0 0.0
2016-Feb-10 09:32N 45°26' E 012°14'0 0.0
2016-Feb-10 08:31N 45°26' E 012°14'0 0.0
2016-Feb-10 07:31N 45°26' E 012°14'0 0.0
2016-Feb-10 06:33N 45°26' E 012°14'0 0.0
2016-Feb-10 05:33N 45°26' E 012°14'0 0.0
2016-Feb-10 04:32N 45°26' E 012°14'0 0.0
2016-Feb-10 03:32N 45°26' E 012°14'0 0.0
2016-Feb-10 02:31N 45°26' E 012°14'0 0.0
2016-Feb-10 01:31N 45°26' E 012°14'0 0.0
2016-Feb-10 00:31N 45°26' E 012°14'0 0.0
2016-Feb-09 23:33N 45°26' E 012°14'0 0.0
2016-Feb-09 22:33N 45°26' E 012°14'0 0.0
2016-Feb-09 21:32N 45°26' E 012°14'0 0.0
2016-Feb-09 20:32N 45°26' E 012°14'0 0.0
2016-Feb-09 19:31N 45°26' E 012°14'0 0.0
2016-Feb-09 18:28N 45°26' E 012°14'0 0.0
2016-Feb-09 17:31N 45°26' E 012°14'0 0.0
2016-Feb-09 16:33N 45°26' E 012°14'0 0.0
2016-Feb-09 15:33N 45°26' E 012°14'1 0.6
2016-Feb-09 14:28N 45°26' E 012°15'4 4.8
2016-Feb-09 13:33N 45°22' E 012°15'8 7.7
2016-Feb-09 12:33N 45°19' E 012°26'1 0.8
2016-Feb-09 11:33N 45°19' E 012°27'0 0.0
2016-Feb-09 10:30N 45°19' E 012°27'0 0.0
2016-Feb-09 09:32N 45°19' E 012°27'0 0.0
2016-Feb-09 08:32N 45°19' E 012°27'0 0.0
2016-Feb-09 07:20N 45°19' E 012°27'0 0.0
2016-Feb-09 06:31N 45°19' E 012°27'5 5.3
2016-Feb-09 05:33N 45°18' E 012°34'1312.7
2016-Feb-09 04:34N 45°24' E 012°50'  
2016-Feb-05 11:31N 37°27' E 023°47'1212.1
2016-Feb-05 10:33N 37°38' E 023°43'1212.2
2016-Feb-05 09:33N 37°49' E 023°37'9 8.9
2016-Feb-05 08:34N 37°57' E 023°33'4 4.3
2016-Feb-05 07:32N 38°01' E 023°31'0 0.0
2016-Feb-05 06:31N 38°01' E 023°31'0 0.1
2016-Feb-05 05:31N 38°01' E 023°31'0 0.1
2016-Feb-05 04:33N 38°02' E 023°31'0 0.0
2016-Feb-05 03:33N 38°02' E 023°31'0 0.0
2016-Feb-05 02:33N 38°02' E 023°31'0 0.0
2016-Feb-05 01:32N 38°02' E 023°31'0 0.0
2016-Feb-05 00:32N 38°02' E 023°31'0 0.1
2016-Feb-04 23:31N 38°02' E 023°31'0 0.0
2016-Feb-04 22:33N 38°02' E 023°31'0 0.0
2016-Feb-04 21:33N 38°02' E 023°31'0 0.0
2016-Feb-04 20:32N 38°02' E 023°31'0 0.1
2016-Feb-04 19:32N 38°02' E 023°31'0 0.0
2016-Feb-04 18:31N 38°02' E 023°31'0 0.0
2016-Feb-04 17:31N 38°02' E 023°31'0 0.0
2016-Feb-04 16:30N 38°02' E 023°31'0 0.1
2016-Feb-04 15:33N 38°02' E 023°31'0 0.0
2016-Feb-04 14:33N 38°02' E 023°31'0 0.0
2016-Feb-04 13:32N 38°02' E 023°31'0 0.0
2016-Feb-04 12:32N 38°02' E 023°31'0 0.1
2016-Feb-04 11:28N 38°02' E 023°31'0 0.0
2016-Feb-04 10:28N 38°02' E 023°31'0 0.0
2016-Feb-04 09:33N 38°02' E 023°31'0 0.0
2016-Feb-04 08:33N 38°02' E 023°31'0 0.0
2016-Feb-04 07:33N 38°02' E 023°31'0 0.0
2016-Feb-04 06:32N 38°02' E 023°31'0 0.0
2016-Feb-04 05:32N 38°01' E 023°31'0 0.1
2016-Feb-04 04:31N 38°02' E 023°31'0 0.1
2016-Feb-04 03:28N 38°02' E 023°31'0 0.1
2016-Feb-04 02:31N 38°02' E 023°31'0 0.4
2016-Feb-04 01:33N 38°02' E 023°31'0 0.3
2016-Feb-04 00:32N 38°02' E 023°31'0 0.0
2016-Feb-03 23:32N 38°02' E 023°31'0 0.0
2016-Feb-03 22:31N 38°02' E 023°31'0 0.0
2016-Feb-03 21:31N 38°02' E 023°31'0 0.0
2016-Feb-03 20:33N 38°02' E 023°31'0 0.0
2016-Feb-03 19:33N 38°02' E 023°31'0 0.0
2016-Feb-03 18:33N 38°02' E 023°31'0 0.0
2016-Feb-03 17:32N 38°02' E 023°31'0 0.0
2016-Feb-03 16:32N 38°02' E 023°31'0 0.0
2016-Feb-03 15:31N 38°02' E 023°31'0 0.0
2016-Feb-03 14:28N 38°02' E 023°31'0 0.0
2016-Feb-03 13:33N 38°02' E 023°31'0 0.0
2016-Feb-03 12:33N 38°02' E 023°31'0 0.0
2016-Feb-03 11:33N 38°02' E 023°31'0 0.0
2016-Feb-03 10:32N 38°02' E 023°31'0 0.0
2016-Feb-03 09:32N 38°02' E 023°31'0 0.0
2016-Feb-03 08:31N 38°02' E 023°31'0 0.0
2016-Feb-03 07:31N 38°02' E 023°31'0 0.0
2016-Feb-03 06:30N 38°02' E 023°31'0 0.0
2016-Feb-03 05:33N 38°02' E 023°31'0 0.0
2016-Feb-03 04:33N 38°02' E 023°31'0 0.0
2016-Feb-03 03:32N 38°02' E 023°31'0 0.0
2016-Feb-03 02:32N 38°02' E 023°31'0 0.0
2016-Feb-03 01:31N 38°02' E 023°31'0 0.0
2016-Feb-03 00:31N 38°02' E 023°31'0 0.0
2016-Feb-02 23:33N 38°02' E 023°31'0 0.0
2016-Feb-02 22:33N 38°02' E 023°31'0 0.0
2016-Feb-02 21:32N 38°02' E 023°31'0 0.0
2016-Feb-02 20:32N 38°02' E 023°31'0 0.0
2016-Feb-02 19:32N 38°02' E 023°31'0 0.0
2016-Feb-02 18:28N 38°02' E 023°31'0 0.0
2016-Feb-02 17:31N 38°02' E 023°31'0 0.0
2016-Feb-02 16:33N 38°02' E 023°31'0 0.0
2016-Feb-02 15:33N 38°02' E 023°31'0 0.0
2016-Feb-02 14:32N 38°02' E 023°31'0 0.0
2016-Feb-02 13:32N 38°02' E 023°31'0 0.0
2016-Feb-02 12:29N 38°02' E 023°31'0 0.0
2016-Feb-02 11:31N 38°02' E 023°31'0 0.0
2016-Feb-02 10:31N 38°02' E 023°31'0 0.0
2016-Feb-02 08:33N 38°02' E 023°31'2 1.6
2016-Feb-02 07:34N 38°01' E 023°31'0 0.1
2016-Feb-02 06:31N 38°01' E 023°32'0 0.1
2016-Feb-02 05:31N 38°01' E 023°32'0 0.0
2016-Feb-02 04:33N 38°01' E 023°32'0 0.1
2016-Feb-02 03:33N 38°01' E 023°31'0 0.1
2016-Feb-02 02:33N 38°01' E 023°31'0 0.1
2016-Feb-02 01:32N 38°01' E 023°31'0 0.1
2016-Feb-02 00:32N 38°01' E 023°31'0 0.0
2016-Feb-01 23:31N 38°01' E 023°31'0 0.1
2016-Feb-01 22:31N 38°01' E 023°31'0 0.0
2016-Feb-01 21:33N 38°01' E 023°31'0 0.1
2016-Feb-01 20:27N 38°01' E 023°31'0 0.1
2016-Feb-01 19:32N 38°01' E 023°32'0 0.1
2016-Feb-01 18:32N 38°01' E 023°31'0 0.2
2016-Feb-01 17:32N 38°01' E 023°32'0 0.1
2016-Feb-01 16:31N 38°01' E 023°32'0 0.0
2016-Feb-01 15:31N 38°01' E 023°32'0 0.0
2016-Feb-01 14:33N 38°01' E 023°32'0 0.0
2016-Feb-01 13:33N 38°01' E 023°32'0 0.0
2016-Feb-01 12:32N 38°01' E 023°32'  
Track history (hours):
 
Tides and Currents Weather Stations Pressure Air Temp Water Temp Dewpoint Dewpoint Depression Visibility Wind Speed Wind Dir Waves Ship Positions

Valle Di Andalusia

Last reported at 2016-Feb-11 12:12 UTC. Time now 2016-Feb-12 14:11 UTC.
Position N 44°48' E 012°56'.

Length 176 m; draft 7.5 m.

Type: Tanker. MMSI: 247046200.

Date/timePositionNaut miles runAvg speedWind from/ knotsBaromVisibWave heightAir tempDewpointWater temp
2016-Feb-11 12:12N 44°48' E 012°56'812.9
2016-Feb-11 11:33N 44°55' E 012°50'1313.1
2016-Feb-11 10:33N 45°06' E 012°41'1212.3
2016-Feb-11 09:33N 45°15' E 012°29'1110.7
2016-Feb-11 08:34N 45°21' E 012°16'6 5.8
2016-Feb-11 07:34N 45°26' E 012°14'0 0.2
2016-Feb-11 06:32N 45°26' E 012°14'0 0.0
2016-Feb-11 05:31N 45°26' E 012°14'0 0.0
2016-Feb-11 04:31N 45°26' E 012°14'0 0.0
2016-Feb-11 03:33N 45°26' E 012°14'0 0.0
2016-Feb-11 02:30N 45°26' E 012°14'0 0.0
2016-Feb-11 01:32N 45°26' E 012°14'0 0.0
2016-Feb-11 00:32N 45°26' E 012°14'0 0.0
2016-Feb-10 23:29N 45°26' E 012°14'0 0.0
2016-Feb-10 22:31N 45°26' E 012°14'0 0.0
2016-Feb-10 21:31N 45°26' E 012°14'0 0.0
2016-Feb-10 20:33N 45°26' E 012°14'0 0.0
2016-Feb-10 19:33N 45°26' E 012°14'0 0.0
2016-Feb-10 18:32N 45°26' E 012°14'0 0.0
2016-Feb-10 17:32N 45°26' E 012°14'0 0.0
2016-Feb-10 16:32N 45°26' E 012°14'0 0.0
2016-Feb-10 15:31N 45°26' E 012°14'0 0.0
2016-Feb-10 14:31N 45°26' E 012°14'0 0.0
2016-Feb-10 13:33N 45°26' E 012°14'0 0.0
2016-Feb-10 12:33N 45°26' E 012°14'0 0.0
2016-Feb-10 11:32N 45°26' E 012°14'0 0.0
2016-Feb-10 10:32N 45°26' E 012°14'0 0.0
2016-Feb-10 09:32N 45°26' E 012°14'0 0.0
2016-Feb-10 08:31N 45°26' E 012°14'0 0.0
2016-Feb-10 07:31N 45°26' E 012°14'0 0.0
2016-Feb-10 06:33N 45°26' E 012°14'0 0.0
2016-Feb-10 05:33N 45°26' E 012°14'0 0.0
2016-Feb-10 04:32N 45°26' E 012°14'0 0.0
2016-Feb-10 03:32N 45°26' E 012°14'0 0.0
2016-Feb-10 02:31N 45°26' E 012°14'0 0.0
2016-Feb-10 01:31N 45°26' E 012°14'0 0.0
2016-Feb-10 00:31N 45°26' E 012°14'0 0.0
2016-Feb-09 23:33N 45°26' E 012°14'0 0.0
2016-Feb-09 22:33N 45°26' E 012°14'0 0.0
2016-Feb-09 21:32N 45°26' E 012°14'0 0.0
2016-Feb-09 20:32N 45°26' E 012°14'0 0.0
2016-Feb-09 19:31N 45°26' E 012°14'0 0.0
2016-Feb-09 18:28N 45°26' E 012°14'0 0.0
2016-Feb-09 17:31N 45°26' E 012°14'0 0.0
2016-Feb-09 16:33N 45°26' E 012°14'0 0.0
2016-Feb-09 15:33N 45°26' E 012°14'1 0.6
2016-Feb-09 14:28N 45°26' E 012°15'4 4.8
2016-Feb-09 13:33N 45°22' E 012°15'8 7.7
2016-Feb-09 12:33N 45°19' E 012°26'1 0.8
2016-Feb-09 11:33N 45°19' E 012°27'0 0.0
2016-Feb-09 10:30N 45°19' E 012°27'0 0.0
2016-Feb-09 09:32N 45°19' E 012°27'0 0.0
2016-Feb-09 08:32N 45°19' E 012°27'0 0.0
2016-Feb-09 07:20N 45°19' E 012°27'0 0.0
2016-Feb-09 06:31N 45°19' E 012°27'5 5.3
2016-Feb-09 05:33N 45°18' E 012°34'1312.7
2016-Feb-09 04:34N 45°24' E 012°50'  
2016-Feb-05 11:31N 37°27' E 023°47'1212.1
2016-Feb-05 10:33N 37°38' E 023°43'1212.2
2016-Feb-05 09:33N 37°49' E 023°37'9 8.9
2016-Feb-05 08:34N 37°57' E 023°33'4 4.3
2016-Feb-05 07:32N 38°01' E 023°31'0 0.0
2016-Feb-05 06:31N 38°01' E 023°31'0 0.1
2016-Feb-05 05:31N 38°01' E 023°31'0 0.1
2016-Feb-05 04:33N 38°02' E 023°31'0 0.0
2016-Feb-05 03:33N 38°02' E 023°31'0 0.0
2016-Feb-05 02:33N 38°02' E 023°31'0 0.0
2016-Feb-05 01:32N 38°02' E 023°31'0 0.0
2016-Feb-05 00:32N 38°02' E 023°31'0 0.1
2016-Feb-04 23:31N 38°02' E 023°31'0 0.0
2016-Feb-04 22:33N 38°02' E 023°31'0 0.0
2016-Feb-04 21:33N 38°02' E 023°31'0 0.0
2016-Feb-04 20:32N 38°02' E 023°31'0 0.1
2016-Feb-04 19:32N 38°02' E 023°31'0 0.0
2016-Feb-04 18:31N 38°02' E 023°31'0 0.0
2016-Feb-04 17:31N 38°02' E 023°31'0 0.0
2016-Feb-04 16:30N 38°02' E 023°31'0 0.1
2016-Feb-04 15:33N 38°02' E 023°31'0 0.0
2016-Feb-04 14:33N 38°02' E 023°31'0 0.0
2016-Feb-04 13:32N 38°02' E 023°31'0 0.0
2016-Feb-04 12:32N 38°02' E 023°31'0 0.1
2016-Feb-04 11:28N 38°02' E 023°31'0 0.0
2016-Feb-04 10:28N 38°02' E 023°31'0 0.0
2016-Feb-04 09:33N 38°02' E 023°31'0 0.0
2016-Feb-04 08:33N 38°02' E 023°31'0 0.0
2016-Feb-04 07:33N 38°02' E 023°31'0 0.0
2016-Feb-04 06:32N 38°02' E 023°31'0 0.0
2016-Feb-04 05:32N 38°01' E 023°31'0 0.1
2016-Feb-04 04:31N 38°02' E 023°31'0 0.1
2016-Feb-04 03:28N 38°02' E 023°31'0 0.1
2016-Feb-04 02:31N 38°02' E 023°31'0 0.4
2016-Feb-04 01:33N 38°02' E 023°31'0 0.3
2016-Feb-04 00:32N 38°02' E 023°31'0 0.0
2016-Feb-03 23:32N 38°02' E 023°31'0 0.0
2016-Feb-03 22:31N 38°02' E 023°31'0 0.0
2016-Feb-03 21:31N 38°02' E 023°31'0 0.0
2016-Feb-03 20:33N 38°02' E 023°31'0 0.0
2016-Feb-03 19:33N 38°02' E 023°31'0 0.0
2016-Feb-03 18:33N 38°02' E 023°31'0 0.0
2016-Feb-03 17:32N 38°02' E 023°31'0 0.0
2016-Feb-03 16:32N 38°02' E 023°31'0 0.0
2016-Feb-03 15:31N 38°02' E 023°31'0 0.0
2016-Feb-03 14:28N 38°02' E 023°31'0 0.0
2016-Feb-03 13:33N 38°02' E 023°31'0 0.0
2016-Feb-03 12:33N 38°02' E 023°31'0 0.0
2016-Feb-03 11:33N 38°02' E 023°31'0 0.0
2016-Feb-03 10:32N 38°02' E 023°31'0 0.0
2016-Feb-03 09:32N 38°02' E 023°31'0 0.0
2016-Feb-03 08:31N 38°02' E 023°31'0 0.0
2016-Feb-03 07:31N 38°02' E 023°31'0 0.0
2016-Feb-03 06:30N 38°02' E 023°31'0 0.0
2016-Feb-03 05:33N 38°02' E 023°31'0 0.0
2016-Feb-03 04:33N 38°02' E 023°31'0 0.0
2016-Feb-03 03:32N 38°02' E 023°31'0 0.0
2016-Feb-03 02:32N 38°02' E 023°31'0 0.0
2016-Feb-03 01:31N 38°02' E 023°31'0 0.0
2016-Feb-03 00:31N 38°02' E 023°31'0 0.0
2016-Feb-02 23:33N 38°02' E 023°31'0 0.0
2016-Feb-02 22:33N 38°02' E 023°31'0 0.0
2016-Feb-02 21:32N 38°02' E 023°31'0 0.0
2016-Feb-02 20:32N 38°02' E 023°31'0 0.0
2016-Feb-02 19:32N 38°02' E 023°31'0 0.0
2016-Feb-02 18:28N 38°02' E 023°31'0 0.0
2016-Feb-02 17:31N 38°02' E 023°31'0 0.0
2016-Feb-02 16:33N 38°02' E 023°31'0 0.0
2016-Feb-02 15:33N 38°02' E 023°31'0 0.0
2016-Feb-02 14:32N 38°02' E 023°31'0 0.0
2016-Feb-02 13:32N 38°02' E 023°31'0 0.0
2016-Feb-02 12:29N 38°02' E 023°31'0 0.0
2016-Feb-02 11:31N 38°02' E 023°31'0 0.0
2016-Feb-02 10:31N 38°02' E 023°31'0 0.0
2016-Feb-02 08:33N 38°02' E 023°31'2 1.6
2016-Feb-02 07:34N 38°01' E 023°31'0 0.1
2016-Feb-02 06:31N 38°01' E 023°32'0 0.1
2016-Feb-02 05:31N 38°01' E 023°32'0 0.0
2016-Feb-02 04:33N 38°01' E 023°32'0 0.1
2016-Feb-02 03:33N 38°01' E 023°31'0 0.1
2016-Feb-02 02:33N 38°01' E 023°31'0 0.1
2016-Feb-02 01:32N 38°01' E 023°31'0 0.1
2016-Feb-02 00:32N 38°01' E 023°31'0 0.0
2016-Feb-01 23:31N 38°01' E 023°31'0 0.1
2016-Feb-01 22:31N 38°01' E 023°31'0 0.0
2016-Feb-01 21:33N 38°01' E 023°31'0 0.1
2016-Feb-01 20:27N 38°01' E 023°31'0 0.1
2016-Feb-01 19:32N 38°01' E 023°32'0 0.1
2016-Feb-01 18:32N 38°01' E 023°31'0 0.2
2016-Feb-01 17:32N 38°01' E 023°32'0 0.1
2016-Feb-01 16:31N 38°01' E 023°32'0 0.0
2016-Feb-01 15:31N 38°01' E 023°32'0 0.0
2016-Feb-01 14:33N 38°01' E 023°32'0 0.0
2016-Feb-01 13:33N 38°01' E 023°32'0 0.0
2016-Feb-01 12:32N 38°01' E 023°32'  

Dump ship's entire track history